Scurry, Texas
Current Conditions -  °F | °C
As of 6:53 PM on Sunday 23 Nov 2014 (Local Time) from KTRL Reporting Station
Clear Clear  
Wind Chill: 66°   Ceiling: Unl
Heat Index: 66°   Visibility: 10mi
Dew Point: 44°   Wind: 22mph
Humidity: 45%   Direction: 290°WNW
Pressure: 29.57"   Gusts: 30mph
Location:  32.52°N, 96.38°W
Report Text: KTRL 240053Z AUTO 29019G26KT 10SM CLR 19/07 A2957 RMK AO2 PK WND 28032/0020 SLP009 T01890067
Loading
Personal Weather Stations






























Interactive Weather Map New forecast layout! Learn more

10-Day Weather Forecast

Advertisements
Track Severe Weather on mobile